createdAt,value
2018-01-18T00:01:07.926Z,9.68
2018-01-18T00:03:36.077Z,6.22
2018-01-18T00:06:04.199Z,9.10
2018-01-18T00:08:32.353Z,10.38
2018-01-18T00:11:00.472Z,8.20
2018-01-18T00:13:28.621Z,9.80
2018-01-18T00:15:56.781Z,5.35
2018-01-18T00:18:24.947Z,7.32
2018-01-18T00:20:53.065Z,9.63
2018-01-18T00:23:21.213Z,10.93
2018-01-18T00:25:49.338Z,7.93
2018-01-18T00:28:17.489Z,11.55
2018-01-18T00:30:45.614Z,7.97
2018-01-18T00:33:14.524Z,9.45
2018-01-18T00:35:42.662Z,12.07
2018-01-18T00:38:10.810Z,8.60
2018-01-18T00:40:38.936Z,9.70
2018-01-18T00:43:07.076Z,9.55
2018-01-18T00:45:35.196Z,6.43
2018-01-18T00:48:03.349Z,9.43
2018-01-18T00:50:32.243Z,6.93
2018-01-18T00:53:00.383Z,6.68
2018-01-18T00:55:28.510Z,7.75
2018-01-18T00:57:56.633Z,6.18
2018-01-18T01:00:24.786Z,7.45
2018-01-18T01:02:52.909Z,9.40
2018-01-18T01:05:21.057Z,11.98
2018-01-18T01:07:49.188Z,13.30
2018-01-18T01:10:17.345Z,11.05
2018-01-18T01:12:45.466Z,6.72
2018-01-18T01:15:13.613Z,8.52
2018-01-18T01:17:41.740Z,11.38
2018-01-18T01:20:10.652Z,12.37
2018-01-18T01:22:38.773Z,7.78
2018-01-18T01:25:06.931Z,10.93
2018-01-18T01:27:35.057Z,6.95
2018-01-18T01:30:03.973Z,8.27
2018-01-18T01:32:32.105Z,8.10
2018-01-18T01:35:00.258Z,12.68
2018-01-18T01:37:28.398Z,14.23
2018-01-18T01:39:56.545Z,9.70
2018-01-18T01:42:24.665Z,8.95
2018-01-18T01:44:52.812Z,8.25
2018-01-18T01:47:20.933Z,5.60
2018-01-18T01:49:49.089Z,5.07
2018-01-18T01:52:17.219Z,5.80
2018-01-18T01:54:45.370Z,6.15
2018-01-18T01:57:13.495Z,6.15
2018-01-18T01:59:41.651Z,5.95
2018-01-18T02:02:09.772Z,4.18
2018-01-18T02:04:37.920Z,7.93
2018-01-18T02:07:06.049Z,6.90
2018-01-18T02:09:34.197Z,6.72
2018-01-18T02:12:02.323Z,5.80
2018-01-18T02:14:30.471Z,5.53
2018-01-18T02:16:58.595Z,7.25
2018-01-18T02:19:26.748Z,2.70
2018-01-18T02:21:54.900Z,3.80
2018-01-18T02:24:23.043Z,4.45
2018-01-18T02:26:51.934Z,5.30
2018-01-18T02:29:20.076Z,4.87
2018-01-18T02:31:48.205Z,4.53
2018-01-18T02:34:16.350Z,6.25
2018-01-18T02:36:44.475Z,3.72
2018-01-18T02:39:12.626Z,7.12
2018-01-18T02:41:40.772Z,5.00
2018-01-18T02:44:09.685Z,3.58
2018-01-18T02:46:37.811Z,5.45
2018-01-18T02:49:05.966Z,7.65
2018-01-18T02:51:34.090Z,4.03
2018-01-18T02:54:02.242Z,3.90
2018-01-18T02:56:30.357Z,4.12
2018-01-18T02:58:58.506Z,6.18
2018-01-18T03:01:26.629Z,10.40
2018-01-18T03:03:54.782Z,4.97
2018-01-18T03:06:22.906Z,4.40
2018-01-18T03:08:51.066Z,5.80
2018-01-18T03:11:19.181Z,7.03
2018-01-18T03:13:47.333Z,4.68
2018-01-18T03:16:15.462Z,8.13
2018-01-18T03:18:43.610Z,5.53
2018-01-18T03:21:11.740Z,5.40
2018-01-18T03:23:40.628Z,6.93
2018-01-18T03:26:08.773Z,8.90
2018-01-18T03:28:36.893Z,6.18
2018-01-18T03:31:05.811Z,6.57
2018-01-18T03:33:33.933Z,6.85
2018-01-18T03:36:02.085Z,6.40
2018-01-18T03:38:30.209Z,14.43
2018-01-18T03:40:58.360Z,6.35
2018-01-18T03:43:26.486Z,8.27
2018-01-18T03:45:54.636Z,7.82
2018-01-18T03:48:22.756Z,8.07
2018-01-18T03:50:50.913Z,9.15
2018-01-18T03:53:19.041Z,7.30
2018-01-18T03:55:47.197Z,10.55
2018-01-18T03:58:16.092Z,7.20
2018-01-18T04:00:44.247Z,11.23
2018-01-18T04:03:12.364Z,14.00
2018-01-18T04:05:40.521Z,12.50
2018-01-18T04:08:08.648Z,10.82
2018-01-18T04:10:36.798Z,9.35
2018-01-18T04:13:04.934Z,8.52
2018-01-18T04:15:33.846Z,11.15
2018-01-18T04:18:01.974Z,11.20
2018-01-18T04:20:30.132Z,10.57
2018-01-18T04:22:58.256Z,10.13
2018-01-18T04:25:26.412Z,9.98
2018-01-18T04:27:54.537Z,6.37
2018-01-18T04:30:22.689Z,13.10
2018-01-18T04:32:50.821Z,14.00
2018-01-18T04:35:18.976Z,10.05
2018-01-18T04:37:47.109Z,12.45
2018-01-18T04:40:15.269Z,12.55
2018-01-18T04:42:43.406Z,11.50
2018-01-18T04:45:11.563Z,15.73
2018-01-18T04:47:39.687Z,8.95
2018-01-18T04:50:07.849Z,10.60
2018-01-18T04:52:35.977Z,25.50
2018-01-18T04:55:04.128Z,17.50
2018-01-18T04:57:32.249Z,13.23
2018-01-18T05:00:00.413Z,14.20
2018-01-18T05:02:28.538Z,10.65
2018-01-18T05:04:56.689Z,15.02
2018-01-18T05:07:24.813Z,12.57
2018-01-18T05:09:52.964Z,18.70
2018-01-18T05:12:21.096Z,15.57
2018-01-18T05:14:50.010Z,9.45
2018-01-18T05:17:18.136Z,11.27
2018-01-18T05:19:46.293Z,13.57
2018-01-18T05:22:14.441Z,9.38
2018-01-18T05:24:42.589Z,10.60
2018-01-18T05:27:10.712Z,16.35
2018-01-18T05:29:38.870Z,13.90
2018-01-18T05:32:06.999Z,11.15
2018-01-18T05:34:35.150Z,11.52
2018-01-18T05:37:03.276Z,13.13
2018-01-18T05:39:31.435Z,15.48
2018-01-18T05:41:59.561Z,13.77
2018-01-18T05:44:27.710Z,15.70
2018-01-18T05:46:55.842Z,15.95
2018-01-18T05:49:24.006Z,9.55
2018-01-18T05:51:52.900Z,10.95
2018-01-18T05:54:21.029Z,11.20
2018-01-18T05:56:49.189Z,16.40
2018-01-18T05:59:17.321Z,13.70
2018-01-18T06:01:45.482Z,13.15
2018-01-18T06:04:13.613Z,13.27
2018-01-18T06:06:41.764Z,14.43
2018-01-18T06:09:09.893Z,17.85
2018-01-18T06:11:38.051Z,15.73
2018-01-18T06:14:06.196Z,16.27
2018-01-18T06:16:34.350Z,12.73
2018-01-18T06:19:02.488Z,12.70
2018-01-18T06:21:30.643Z,13.95
2018-01-18T06:23:58.768Z,13.65
2018-01-18T06:26:26.919Z,16.90
2018-01-18T06:28:55.821Z,14.57
2018-01-18T06:31:23.979Z,15.10
2018-01-18T06:33:52.871Z,18.27
2018-01-18T06:36:21.043Z,12.70
2018-01-18T06:38:49.939Z,16.42
2018-01-18T06:41:18.102Z,12.70
2018-01-18T06:43:47.002Z,19.65
2018-01-18T06:46:15.171Z,11.80
2018-01-18T06:48:44.062Z,16.77
2018-01-18T06:51:12.218Z,13.85
2018-01-18T06:53:40.362Z,15.15
2018-01-18T06:56:08.522Z,16.35
2018-01-18T06:58:36.657Z,14.07
2018-01-18T07:01:04.809Z,10.45
2018-01-18T07:03:32.947Z,22.67
2018-01-18T07:06:01.116Z,16.98
2018-01-18T07:08:29.239Z,13.93
2018-01-18T07:10:57.392Z,16.80
2018-01-18T07:13:25.526Z,13.48
2018-01-18T07:15:53.681Z,19.02
2018-01-18T07:18:21.805Z,18.05
2018-01-18T07:20:49.957Z,15.25
2018-01-18T07:23:18.087Z,12.95
2018-01-18T07:25:47.001Z,12.00
2018-01-18T07:28:15.128Z,16.62
2018-01-18T07:30:43.283Z,14.32
2018-01-18T07:33:11.415Z,14.75
2018-01-18T07:35:39.569Z,22.48
2018-01-18T07:38:07.705Z,23.83
2018-01-18T07:40:35.854Z,11.73
2018-01-18T07:43:03.976Z,14.50
2018-01-18T07:45:32.901Z,16.48
2018-01-18T07:48:01.049Z,13.52
2018-01-18T07:50:29.213Z,16.25
2018-01-18T07:52:57.336Z,15.40
2018-01-18T07:55:25.493Z,26.25
2018-01-18T07:57:53.621Z,13.60
2018-01-18T08:00:21.777Z,24.63
2018-01-18T08:02:55.486Z,12.75
2018-01-18T08:05:23.640Z,13.35
2018-01-18T08:07:51.768Z,14.55
2018-01-18T08:10:19.922Z,15.15
2018-01-18T08:12:48.045Z,14.35
2018-01-18T08:15:16.208Z,8.43
2018-01-18T08:17:44.329Z,11.73
2018-01-18T08:20:12.493Z,11.32
2018-01-18T08:22:40.623Z,13.40
2018-01-18T08:25:08.775Z,12.85
2018-01-18T08:27:37.693Z,7.28
2018-01-18T08:30:05.814Z,17.55
2018-01-18T08:32:33.978Z,11.02
2018-01-18T08:35:02.104Z,11.95
2018-01-18T08:37:30.252Z,16.45
2018-01-18T08:39:58.383Z,10.27
2018-01-18T08:42:26.528Z,14.87
2018-01-18T08:44:54.655Z,15.40
2018-01-18T08:47:22.813Z,11.68
2018-01-18T08:49:50.938Z,11.32
2018-01-18T08:52:19.097Z,9.65
2018-01-18T08:54:47.982Z,7.70
2018-01-18T08:57:16.134Z,12.65
2018-01-18T08:59:44.257Z,9.43
2018-01-18T09:02:12.406Z,9.93
2018-01-18T09:04:40.534Z,6.45
2018-01-18T09:07:08.680Z,11.05
2018-01-18T09:09:36.812Z,9.68
2018-01-18T09:12:05.720Z,10.07
2018-01-18T09:14:33.850Z,11.77
2018-01-18T09:17:02.002Z,9.07
2018-01-18T09:19:30.129Z,25.70
2018-01-18T09:21:58.278Z,11.23
2018-01-18T09:24:26.402Z,7.85
2018-01-18T09:26:54.550Z,11.93
2018-01-18T09:29:23.444Z,11.25
2018-01-18T09:31:51.598Z,8.70
2018-01-18T09:34:20.495Z,9.35
2018-01-18T09:36:48.645Z,13.27
2018-01-18T09:39:16.759Z,8.88
2018-01-18T09:41:44.920Z,10.80
2018-01-18T09:44:13.049Z,8.85
2018-01-18T09:46:41.199Z,7.65
2018-01-18T09:49:09.320Z,8.57
2018-01-18T09:51:37.497Z,7.15
2018-01-18T09:54:05.614Z,9.77
2018-01-18T09:56:33.765Z,10.13
2018-01-18T09:59:01.895Z,11.77
2018-01-18T10:01:30.040Z,10.77
2018-01-18T10:03:58.255Z,7.93
2018-01-18T10:06:26.424Z,8.65
2018-01-18T10:08:54.587Z,9.07
2018-01-18T10:11:22.744Z,11.70
2018-01-18T10:13:50.893Z,19.55
2018-01-18T10:16:19.042Z,9.48
2018-01-18T10:18:47.967Z,16.37
2018-01-18T10:21:16.218Z,11.80
2018-01-18T10:23:44.341Z,12.02
2018-01-18T10:26:12.501Z,15.68
2018-01-18T10:28:40.638Z,11.75
2018-01-18T10:31:08.794Z,17.55
2018-01-18T10:33:36.920Z,10.90
2018-01-18T10:36:05.077Z,13.77
2018-01-18T10:38:33.213Z,11.18
2018-01-18T10:41:02.124Z,7.20
2018-01-18T10:43:30.258Z,16.77
2018-01-18T10:45:58.408Z,10.27
2018-01-18T10:48:26.537Z,10.93
2018-01-18T10:50:54.665Z,7.40
2018-01-18T10:53:22.884Z,4.95
2018-01-18T10:55:50.962Z,11.05
2018-01-18T10:58:19.114Z,12.88
2018-01-18T11:00:47.248Z,5.50
2018-01-18T11:03:15.410Z,7.80
2018-01-18T11:05:43.535Z,5.68
2018-01-18T11:08:12.454Z,4.50
2018-01-18T11:10:40.600Z,8.85
2018-01-18T11:13:09.517Z,6.28
2018-01-18T11:15:37.666Z,4.03
2018-01-18T11:18:06.574Z,9.45
2018-01-18T11:20:34.700Z,5.90
2018-01-18T11:23:02.855Z,4.53
2018-01-18T11:25:30.993Z,4.72
2018-01-18T11:27:59.155Z,4.22
2018-01-18T11:30:27.279Z,6.25
2018-01-18T11:32:55.437Z,3.72
2018-01-18T11:35:23.554Z,3.42
2018-01-18T11:37:51.701Z,3.50
2018-01-18T11:40:19.833Z,3.35
2018-01-18T11:42:47.982Z,4.22
2018-01-18T11:45:16.871Z,4.82
2018-01-18T11:47:45.026Z,3.70
2018-01-18T11:50:13.154Z,4.93
2018-01-18T11:52:41.321Z,3.37
2018-01-18T11:55:09.442Z,3.50
2018-01-18T11:57:37.618Z,2.00
2018-01-18T12:00:05.760Z,4.00
2018-01-18T12:02:33.914Z,3.78
2018-01-18T12:05:02.058Z,3.40
2018-01-18T12:07:30.216Z,3.55
2018-01-18T12:09:59.119Z,1.67
2018-01-18T12:12:27.273Z,2.58
2018-01-18T12:14:55.407Z,2.45
2018-01-18T12:17:23.553Z,5.30
2018-01-18T12:19:51.699Z,2.47
2018-01-18T12:22:19.850Z,8.63
2018-01-18T12:24:47.974Z,3.78
2018-01-18T12:27:16.130Z,3.00
2018-01-18T12:29:44.255Z,2.60
2018-01-18T12:32:12.421Z,1.58
2018-01-18T12:34:40.590Z,1.05
2018-01-18T12:37:08.729Z,1.60
2018-01-18T12:39:36.856Z,3.30
2018-01-18T12:42:05.014Z,1.50
2018-01-18T12:44:33.146Z,2.53
2018-01-18T12:47:02.068Z,0.80
2018-01-18T12:49:30.184Z,1.20
2018-01-18T12:51:58.383Z,1.15
2018-01-18T12:54:26.509Z,1.45
2018-01-18T12:56:54.666Z,0.70
2018-01-18T12:59:22.805Z,2.92
2018-01-18T13:01:50.953Z,1.20
2018-01-18T13:04:19.085Z,0.70
2018-01-18T13:06:47.256Z,0.40
2018-01-18T13:09:15.384Z,0.70
2018-01-18T13:11:44.380Z,1.00
2018-01-18T13:14:13.296Z,1.17
2018-01-18T13:16:41.422Z,0.75
2018-01-18T13:19:09.586Z,1.87
2018-01-18T13:21:37.767Z,1.00
2018-01-18T13:24:05.921Z,1.50
2018-01-18T13:26:34.067Z,1.02
2018-01-18T13:29:02.248Z,0.75
2018-01-18T13:31:30.379Z,2.35
2018-01-18T13:33:58.525Z,0.60
2018-01-18T13:36:26.663Z,1.58
2018-01-18T13:38:54.812Z,0.60
2018-01-18T13:41:22.930Z,0.60
2018-01-18T13:43:51.086Z,0.70
2018-01-18T13:46:19.355Z,0.80
2018-01-18T13:48:47.509Z,2.37
2018-01-18T13:51:15.635Z,2.00
2018-01-18T13:53:44.573Z,1.20
2018-01-18T13:56:12.737Z,1.25
2018-01-18T13:58:41.651Z,1.40
2018-01-18T14:01:09.816Z,1.60
2018-01-18T14:03:38.008Z,1.65
2018-01-18T14:06:06.128Z,1.40
2018-01-18T14:08:34.277Z,2.00
2018-01-18T14:11:02.419Z,1.25
2018-01-18T14:13:30.660Z,3.67
2018-01-18T14:15:58.778Z,1.00
2018-01-18T14:18:26.946Z,1.33
2018-01-18T14:20:55.064Z,2.15
2018-01-18T14:23:23.252Z,1.65
2018-01-18T14:25:51.453Z,1.30
2018-01-18T14:28:19.602Z,1.40
2018-01-18T14:30:47.752Z,1.60
2018-01-18T14:33:16.003Z,1.80
2018-01-18T14:35:44.129Z,1.37
2018-01-18T14:38:12.296Z,1.40
2018-01-18T14:40:40.456Z,1.52
2018-01-18T14:43:08.611Z,1.70
2018-01-18T14:45:36.875Z,1.90
2018-01-18T14:48:05.041Z,3.40
2018-01-18T14:50:33.223Z,2.92
2018-01-18T14:53:01.390Z,2.47
2018-01-18T14:55:29.612Z,2.28
2018-01-18T14:57:57.765Z,3.55
2018-01-18T15:00:25.894Z,3.17
2018-01-18T15:02:54.061Z,3.85
2018-01-18T15:05:23.233Z,3.50
2018-01-18T15:07:51.445Z,3.10
2018-01-18T15:10:19.661Z,2.92
2018-01-18T15:12:47.823Z,3.15
2018-01-18T15:15:15.957Z,3.58
2018-01-18T15:17:44.168Z,2.50
2018-01-18T15:20:12.330Z,2.90
2018-01-18T15:22:40.490Z,3.20
2018-01-18T15:25:08.664Z,2.22
2018-01-18T15:27:36.841Z,2.42
2018-01-18T15:30:05.094Z,2.50
2018-01-18T15:32:33.241Z,1.73
2018-01-18T15:35:01.395Z,2.35
2018-01-18T15:37:29.577Z,2.65
2018-01-18T15:39:57.742Z,3.03
2018-01-18T15:42:25.988Z,6.65
2018-01-18T15:44:54.187Z,8.70
2018-01-18T15:47:22.317Z,7.85
2018-01-18T15:49:50.484Z,10.32
2018-01-18T15:52:18.716Z,10.95
2018-01-18T15:54:46.876Z,12.10
2018-01-18T15:57:15.010Z,11.57
2018-01-18T15:59:43.187Z,10.65
2018-01-18T16:02:11.341Z,10.65
2018-01-18T16:04:39.507Z,8.43
2018-01-18T16:07:07.698Z,8.63
2018-01-18T16:09:35.877Z,8.00
2018-01-18T16:12:04.069Z,8.30
2018-01-18T16:14:32.238Z,7.72
2018-01-18T16:17:00.388Z,5.40
2018-01-18T16:19:28.572Z,6.60
2018-01-18T16:21:56.715Z,6.95
2018-01-18T16:24:24.865Z,8.50
2018-01-18T16:26:52.993Z,9.63
2018-01-18T16:29:21.230Z,11.68
2018-01-18T16:31:49.385Z,12.50
2018-01-18T16:34:17.582Z,9.45
2018-01-18T16:36:46.514Z,7.45
2018-01-18T16:39:14.679Z,6.28
2018-01-18T16:41:42.943Z,7.87
2018-01-18T16:44:11.112Z,8.07
2018-01-18T16:46:39.238Z,9.55
2018-01-18T16:49:07.392Z,7.20
2018-01-18T16:51:35.516Z,7.60
2018-01-18T16:54:03.668Z,10.95
2018-01-18T16:56:32.566Z,9.85
2018-01-18T16:59:00.725Z,10.18
2018-01-18T17:01:28.889Z,7.20
2018-01-18T17:03:57.046Z,6.75
2018-01-18T17:06:25.200Z,10.13
2018-01-18T17:08:53.344Z,9.10
2018-01-18T17:11:21.576Z,9.50
2018-01-18T17:13:49.737Z,10.00
2018-01-18T17:16:17.866Z,10.27
2018-01-18T17:18:46.800Z,9.93
2018-01-18T17:21:14.958Z,8.85
2018-01-18T17:23:43.107Z,10.23
2018-01-18T17:26:11.255Z,9.05
2018-01-18T17:28:39.406Z,10.43
2018-01-18T17:31:07.634Z,8.30
2018-01-18T17:33:35.803Z,8.25
2018-01-18T17:36:03.952Z,17.40
2018-01-18T17:38:32.965Z,10.32
2018-01-18T17:41:01.085Z,11.45
2018-01-18T17:43:29.233Z,8.13
2018-01-18T17:45:57.357Z,8.38
2018-01-18T17:48:25.604Z,9.80
2018-01-18T17:50:53.725Z,8.68
2018-01-18T17:53:21.915Z,6.12
2018-01-18T17:55:50.212Z,5.32
2018-01-18T17:58:18.395Z,6.18
2018-01-18T18:00:46.539Z,4.93
2018-01-18T18:03:14.702Z,4.03
2018-01-18T18:05:42.830Z,5.43
2018-01-18T18:08:10.982Z,6.68
2018-01-18T18:10:39.145Z,5.18
2018-01-18T18:13:07.317Z,4.20
2018-01-18T18:15:35.462Z,6.40
2018-01-18T18:18:03.806Z,6.32
2018-01-18T18:20:32.076Z,7.97
2018-01-18T18:23:00.394Z,4.28
2018-01-18T18:25:28.530Z,5.35
2018-01-18T18:27:57.039Z,4.95
2018-01-18T18:30:25.782Z,9.40
2018-01-18T18:32:54.306Z,12.05
2018-01-18T18:35:22.990Z,5.18
2018-01-18T18:37:51.700Z,5.18
2018-01-18T18:40:21.818Z,5.45
2018-01-18T18:42:50.898Z,5.72
2018-01-18T18:45:19.565Z,6.22
2018-01-18T18:47:48.834Z,4.95
2018-01-18T18:50:17.481Z,4.20
2018-01-18T18:52:46.455Z,6.35
2018-01-18T18:55:15.402Z,6.32
2018-01-18T18:57:43.559Z,6.82
2018-01-18T19:00:11.805Z,4.80
2018-01-18T19:02:39.949Z,6.97
2018-01-18T19:05:08.124Z,4.35
2018-01-18T19:07:36.434Z,6.62
2018-01-18T19:10:04.638Z,4.20
2018-01-18T19:12:32.845Z,3.42
2018-01-18T19:15:01.002Z,5.47
2018-01-18T19:17:29.128Z,4.47
2018-01-18T19:19:57.308Z,4.37
2018-01-18T19:22:25.546Z,6.47
2018-01-18T19:24:53.779Z,6.72
2018-01-18T19:27:22.040Z,5.82
2018-01-18T19:29:50.322Z,8.63
2018-01-18T19:32:18.444Z,5.90
2018-01-18T19:34:47.215Z,7.25
2018-01-18T19:37:15.539Z,9.32
2018-01-18T19:39:43.832Z,7.45
2018-01-18T19:42:12.011Z,7.20
2018-01-18T19:44:40.221Z,10.95
2018-01-18T19:47:08.458Z,8.10
2018-01-18T19:49:36.878Z,9.68
2018-01-18T19:52:05.460Z,10.35
2018-01-18T19:54:33.823Z,7.82
2018-01-18T19:57:02.040Z,8.82
2018-01-18T19:59:30.357Z,9.27
2018-01-18T20:01:58.780Z,10.43
2018-01-18T20:04:26.963Z,8.30
2018-01-18T20:06:56.352Z,8.27
2018-01-18T20:09:24.718Z,5.30
2018-01-18T20:11:53.850Z,7.97
2018-01-18T20:14:22.251Z,7.55
2018-01-18T20:16:50.473Z,7.20
2018-01-18T20:19:18.820Z,7.25
2018-01-18T20:21:47.121Z,6.95
2018-01-18T20:24:15.320Z,6.18
2018-01-18T20:26:44.550Z,5.90
2018-01-18T20:29:12.813Z,8.43
2018-01-18T20:31:41.147Z,6.37
2018-01-18T20:34:09.405Z,5.85
2018-01-18T20:36:37.581Z,11.30
2018-01-18T20:39:05.904Z,9.48
2018-01-18T20:41:34.840Z,7.53
2018-01-18T20:44:03.002Z,7.55
2018-01-18T20:46:31.152Z,5.55
2018-01-18T20:49:00.127Z,9.82
2018-01-18T20:51:28.411Z,9.15
2018-01-18T20:53:57.327Z,8.32
2018-01-18T20:56:25.488Z,12.88
2018-01-18T20:58:53.623Z,13.20
2018-01-18T21:01:21.802Z,13.13
2018-01-18T21:03:52.376Z,14.52
2018-01-18T21:06:20.944Z,13.77
2018-01-18T21:08:49.102Z,13.95
2018-01-18T21:11:18.108Z,12.82
2018-01-18T21:13:46.260Z,13.25
2018-01-18T21:16:14.517Z,19.60
2018-01-18T21:18:42.687Z,13.57
2018-01-18T21:21:10.937Z,13.90
2018-01-18T21:23:39.095Z,12.73
2018-01-18T21:26:07.348Z,13.93
2018-01-18T21:28:35.539Z,17.60
2018-01-18T21:31:03.782Z,17.05
2018-01-18T21:33:31.916Z,18.02
2018-01-18T21:36:00.122Z,13.35
2018-01-18T21:38:28.258Z,19.40
2018-01-18T21:40:56.437Z,12.32
2018-01-18T21:43:24.600Z,14.63
2018-01-18T21:45:52.796Z,12.52
2018-01-18T21:48:20.942Z,13.60
2018-01-18T21:50:49.142Z,12.98
2018-01-18T21:53:17.295Z,14.45
2018-01-18T21:55:45.543Z,13.88
2018-01-18T21:58:13.715Z,17.90
2018-01-18T22:00:41.869Z,16.12
2018-01-18T22:03:10.020Z,16.17
2018-01-18T22:05:38.173Z,13.02
2018-01-18T22:08:06.415Z,12.98
2018-01-18T22:10:34.877Z,13.20
2018-01-18T22:13:03.775Z,14.90
2018-01-18T22:15:32.748Z,14.50
2018-01-18T22:18:00.956Z,16.35
2018-01-18T22:20:29.134Z,15.35
2018-01-18T22:22:57.349Z,19.90
2018-01-18T22:25:25.627Z,17.02
2018-01-18T22:27:53.793Z,17.87
2018-01-18T22:30:22.034Z,23.38
2018-01-18T22:32:50.237Z,19.17
2018-01-18T22:35:18.463Z,22.30
2018-01-18T22:37:46.638Z,18.35
2018-01-18T22:40:15.589Z,20.85
2018-01-18T22:42:43.897Z,23.48
2018-01-18T22:45:13.521Z,21.27
2018-01-18T22:47:41.832Z,22.50
2018-01-18T22:50:10.084Z,26.20
2018-01-18T22:52:38.252Z,24.52
2018-01-18T22:55:06.571Z,27.67
2018-01-18T22:57:34.859Z,25.05
2018-01-18T23:00:03.065Z,23.83
2018-01-18T23:02:32.065Z,25.30
2018-01-18T23:05:00.211Z,29.95
2018-01-18T23:07:28.440Z,23.38
2018-01-18T23:09:56.581Z,28.25
2018-01-18T23:12:24.857Z,31.62
2018-01-18T23:14:53.481Z,32.05
2018-01-18T23:17:21.646Z,31.23
2018-01-18T23:19:50.551Z,29.48
2018-01-18T23:22:18.705Z,30.88
2018-01-18T23:24:46.838Z,34.33
2018-01-18T23:27:15.757Z,29.02
2018-01-18T23:29:43.909Z,33.30
2018-01-18T23:32:12.834Z,31.17
2018-01-18T23:34:40.966Z,26.02
2018-01-18T23:37:09.886Z,28.12
2018-01-18T23:39:38.021Z,29.45
2018-01-18T23:42:06.175Z,29.52
2018-01-18T23:44:34.314Z,26.27
2018-01-18T23:47:02.473Z,23.95
2018-01-18T23:49:30.610Z,28.23
2018-01-18T23:51:58.803Z,23.35
2018-01-18T23:54:26.953Z,24.70
2018-01-18T23:56:55.105Z,27.05
2018-01-18T23:59:23.237Z,25.30
